• location
  • image
mod_vvisit_countermod_vvisit_countermod_vvisit_countermod_vvisit_countermod_vvisit_countermod_vvisit_counter
mod_vvisit_counterToday642
mod_vvisit_counterYesterday860
mod_vvisit_counterThis week3528
mod_vvisit_counterLast week4065
mod_vvisit_counterThis month12874
mod_vvisit_counterLast month21291
mod_vvisit_counterAll days532951

We have: 7 guests online
Your IP: 54.205.111.118
 , 
Today: Jan 20, 2017
Airport

AP V2 EN

 

 

You can watch a film about services of Siauliai International Airport

Today

Friday, 20 January 2017

Weather Forecast

Siauliai °C
   

Aviation Weather Forecast

[source: ADDS]
METAR
EYSA 201550Z 25016KT 8000 OVC002 02/02 Q1021 R32R/290195 R32L/290195 AMB TEMPO 3000 BR OVC003 YLO2 =
TAF
TAF EYSA 201400Z 2015/2024 25010KT 1500 BR OVC002 TEMPO 2015/2024 0600 DZ FG OVC001 =
SR / SS: 06:36 / 14:41 UTC (EYSA 2017-01-20)

Search

Who's Online

We have 7 guests online

tic logo en